Time;durP1;ratioP1;P1;durP2;ratioP2;P2;SDS_P1;SDS_P2;PMS_P1;PMS_P2;Temp;Humidity;BMP_temperature;BMP_pressure;BME280_temperature;BME280_humidity;BME280_pressure;Samples;Min_cycle;Max_cycle;Signal;HPM_P1;HPM_P2
2022/09/06 00:00:31;;;;;;;72.57;69.25;;;;;;;26.12;42.00;101565.41;5051019;28;20364;-73
2022/09/06 00:02:56;;;;;;;73.00;69.60;;;;;;;26.08;41.91;101578.28;5049232;28;20119;-73
2022/09/06 00:05:22;;;;;;;75.90;72.03;;;;;;;26.05;42.30;101554.81;5037741;28;20508;-73
2022/09/06 00:07:47;;;;;;;72.15;68.75;;;;;;;26.03;42.49;101573.75;5083795;28;20037;-72
2022/09/06 00:10:13;;;;;;;75.45;71.95;;;;;;;26.01;42.84;101556.66;5051342;28;20136;-73
2022/09/06 00:12:39;;;;;;;75.32;71.63;;;;;;;25.99;42.88;101571.97;5051290;28;20496;-72
2022/09/06 00:15:05;;;;;;;74.45;70.85;;;;;;;25.97;43.24;101557.63;5050997;28;20116;-72
2022/09/06 00:17:32;;;;;;;72.97;69.47;;;;;;;25.94;43.31;101561.84;5045141;28;20032;-73
2022/09/06 00:19:57;;;;;;;77.70;73.68;;;;;;;25.92;43.16;101549.50;5039633;28;20090;-73
2022/09/06 00:22:22;;;;;;;74.78;71.07;;;;;;;25.88;43.14;101550.16;5038156;28;20033;-73
2022/09/06 00:24:48;;;;;;;72.20;68.70;;;;;;;25.86;43.12;101549.66;5045222;28;20061;-72
2022/09/06 00:27:13;;;;;;;71.78;67.97;;;;;;;25.83;43.55;101555.81;5046615;28;20560;-73
2022/09/06 00:29:39;;;;;;;73.22;69.82;;;;;;;25.81;43.36;101552.56;5039659;28;20517;-72
2022/09/06 00:32:04;;;;;;;75.15;71.25;;;;;;;25.78;43.68;101536.63;5049320;28;20090;-73
2022/09/06 00:34:30;;;;;;;75.47;71.68;;;;;;;25.77;43.29;101532.19;5049198;28;20419;-73
2022/09/06 00:36:55;;;;;;;72.88;69.30;;;;;;;25.74;43.42;101529.28;5040929;28;20037;-73
2022/09/06 00:39:21;;;;;;;77.15;73.45;;;;;;;25.69;43.94;101533.84;5049861;28;20068;-73
2022/09/06 00:41:46;;;;;;;73.07;69.63;;;;;;;25.68;43.75;101535.00;5040344;28;20068;-73
2022/09/06 00:44:12;;;;;;;68.93;65.63;;;;;;;25.65;43.64;101527.34;5050785;28;20059;-72
2022/09/06 00:46:40;;;;;;;70.82;67.25;;;;;;;25.62;43.85;101525.22;5060593;28;20037;-73
2022/09/06 00:49:23;;;;;;;73.20;69.68;;;;;;;25.60;44.10;101523.91;5047030;28;20025;-72
2022/09/06 00:51:57;;;;;;;71.72;68.13;;;;;;;25.58;44.29;101491.06;5051751;28;20025;-72
2022/09/06 00:54:23;;;;;;;72.53;68.68;;;;;;;25.55;44.25;101458.53;5052026;28;20029;-72
2022/09/06 00:56:49;;;;;;;67.57;64.18;;;;;;;25.53;44.70;101438.66;5039807;28;20035;-72
2022/09/06 00:59:15;;;;;;;73.22;69.43;;;;;;;25.49;44.66;101404.50;5048419;28;20079;-72
2022/09/06 01:01:40;;;;;;;73.35;69.57;;;;;;;25.47;45.09;101392.94;5041507;28;20033;-72
2022/09/06 01:04:06;;;;;;;71.10;67.60;;;;;;;25.44;45.32;101397.16;5033106;28;20367;-72
2022/09/06 01:07:09;;;;;;;70.25;66.85;;;;;;;25.39;45.43;101382.72;5038347;28;20049;-73
2022/09/06 01:10:02;;;;;;;71.05;67.50;;;;;;;25.34;44.56;101369.84;5000964;28;20237;-72
2022/09/06 01:12:54;;;;;;;69.88;66.30;;;;;;;25.32;45.03;101349.19;5050224;28;20107;-73
2022/09/06 01:15:55;;;;;;;70.00;66.57;;;;;;;25.27;44.67;101350.19;5038696;28;20033;-72
2022/09/06 01:18:39;;;;;;;71.00;67.50;;;;;;;25.24;44.66;101359.13;5028741;28;20150;-72
2022/09/06 01:22:02;;;;;;;69.32;66.03;;;;;;;25.20;44.36;101355.38;5044556;28;20040;-74
2022/09/06 01:24:57;;;;;;;68.68;65.38;;;;;;;25.16;44.91;101349.72;4980640;28;20053;-74
2022/09/06 01:27:28;;;;;;;69.93;66.50;;;;;;;25.14;44.52;101345.63;5030103;28;20454;-73
2022/09/06 01:30:08;;;;;;;70.28;66.72;;;;;;;25.10;44.63;101342.72;5044202;28;20028;-72
2022/09/06 01:32:48;;;;;;;70.93;67.57;;;;;;;25.07;44.47;101356.34;5043410;28;20488;-74
2022/09/06 01:35:21;;;;;;;70.07;66.68;;;;;;;25.04;44.83;101364.16;5044825;28;20499;-73
2022/09/06 01:37:46;;;;;;;67.82;64.32;;;;;;;25.03;44.71;101372.78;5047168;28;20040;-73
2022/09/06 01:40:12;;;;;;;69.15;65.68;;;;;;;25.00;44.57;101379.78;5049222;28;20033;-73
2022/09/06 01:42:39;;;;;;;69.28;65.97;;;;;;;24.98;44.84;101379.28;5031884;28;20102;-73
2022/09/06 01:45:09;;;;;;;72.40;68.60;;;;;;;24.96;44.84;101383.50;5046584;28;20033;-73
2022/09/06 01:47:37;;;;;;;67.22;63.95;;;;;;;24.94;44.48;101388.53;5047535;28;20083;-73
2022/09/06 01:50:09;;;;;;;70.38;66.68;;;;;;;24.91;44.62;101412.13;5051476;28;20477;-73
2022/09/06 01:52:42;;;;;;;71.50;68.00;;;;;;;24.90;44.54;101435.38;5043513;28;20026;-73
2022/09/06 01:55:25;;;;;;;66.18;62.78;;;;;;;24.87;44.60;101435.19;5041749;28;20068;-72
2022/09/06 01:58:09;;;;;;;67.15;63.85;;;;;;;24.84;44.41;101429.16;5031978;28;20044;-74
2022/09/06 02:00:54;;;;;;;65.53;62.20;;;;;;;24.81;44.51;101418.75;5048250;28;20033;-73
2022/09/06 02:03:31;;;;;;;69.30;65.70;;;;;;;24.79;44.84;101407.22;5049475;28;20059;-73
2022/09/06 02:06:05;;;;;;;69.13;65.57;;;;;;;24.76;44.48;101398.78;5043109;28;20095;-73
2022/09/06 02:08:36;;;;;;;70.90;67.38;;;;;;;24.75;45.05;101394.41;5041685;28;20043;-73
2022/09/06 02:11:08;;;;;;;65.97;62.75;;;;;;;24.72;44.41;101403.31;5042447;28;20033;-73
2022/09/06 02:13:40;;;;;;;67.78;64.47;;;;;;;24.69;44.77;101399.25;5045017;28;20068;-73
2022/09/06 02:16:09;;;;;;;65.82;62.55;;;;;;;24.67;44.88;101389.66;5041887;28;20495;-74
2022/09/06 02:18:41;;;;;;;66.60;63.08;;;;;;;24.66;44.38;101393.56;5044156;28;20040;-74
2022/09/06 02:21:11;;;;;;;64.40;61.03;;;;;;;24.63;44.53;101380.41;5050441;28;20104;-74
2022/09/06 02:23:39;;;;;;;66.00;62.70;;;;;;;24.60;44.84;101371.63;5037934;28;20025;-73
2022/09/06 02:26:20;;;;;;;68.82;65.47;;;;;;;24.58;45.20;101368.34;5048888;28;20564;-73
2022/09/06 02:28:46;;;;;;;63.15;59.85;;;;;;;24.57;44.75;101366.75;5044536;28;20059;-73
2022/09/06 02:31:18;;;;;;;68.60;65.30;;;;;;;24.54;45.17;101364.59;5048902;28;20469;-73
2022/09/06 02:33:45;;;;;;;67.10;63.70;;;;;;;24.52;44.83;101355.84;5044272;28;20112;-73
2022/09/06 02:36:13;;;;;;;63.90;60.75;;;;;;;24.50;45.08;101352.59;5041526;28;20448;-73
2022/09/06 02:38:40;;;;;;;69.45;66.00;;;;;;;24.48;45.10;101354.06;5033223;28;20473;-73
2022/09/06 02:41:06;;;;;;;63.30;59.83;;;;;;;24.46;44.88;101353.56;5040601;28;20037;-72
2022/09/06 02:43:32;;;;;;;66.65;63.25;;;;;;;24.43;44.92;101352.22;5035126;28;20038;-73
2022/09/06 02:45:57;;;;;;;64.22;61.13;;;;;;;24.41;45.04;101360.00;5048563;28;20056;-74
2022/09/06 02:48:23;;;;;;;62.17;59.15;;;;;;;24.38;44.78;101360.66;5047709;28;20033;-73
2022/09/06 02:50:48;;;;;;;66.82;63.53;;;;;;;24.37;44.79;101367.31;5048747;28;20393;-73
2022/09/06 02:53:14;;;;;;;65.60;61.95;;;;;;;24.35;44.99;101364.06;5050276;28;20362;-73
2022/09/06 02:55:40;;;;;;;65.07;61.75;;;;;;;24.33;44.99;101361.63;5044678;28;20048;-73
2022/09/06 02:58:08;;;;;;;59.80;56.80;;;;;;;24.31;45.05;101352.03;5039866;28;20041;-73
2022/09/06 03:00:34;;;;;;;;;;;;;;;24.29;44.52;101352.38;5043562;28;20392;-76
2022/09/06 03:02:59;;;;;;;63.03;59.72;;;;;;;24.27;44.71;101353.81;5037792;28;19916;-72
2022/09/06 03:05:26;;;;;;;62.00;58.72;;;;;;;24.24;44.86;101357.19;5041179;28;20396;-73
2022/09/06 03:07:53;;;;;;;65.00;61.40;;;;;;;24.21;45.07;101358.66;5037242;28;20034;-73
2022/09/06 03:10:19;;;;;;;63.45;60.13;;;;;;;24.21;45.43;101368.88;5050165;28;20076;-76
2022/09/06 03:12:45;;;;;;;62.88;59.63;;;;;;;24.17;45.41;101369.53;5049832;28;20033;-74
2022/09/06 03:15:12;;;;;;;63.17;60.08;;;;;;;24.16;45.42;101376.16;5038734;28;20043;-73
2022/09/06 03:17:38;;;;;;;63.20;59.72;;;;;;;24.14;45.33;101372.09;5044616;28;20028;-73
2022/09/06 03:20:04;;;;;;;61.15;57.95;;;;;;;24.11;45.59;101368.03;5045385;28;20029;-73
2022/09/06 03:22:30;;;;;;;61.38;58.17;;;;;;;24.10;45.21;101368.38;5049467;28;20452;-73
2022/09/06 03:24:56;;;;;;;60.72;57.65;;;;;;;24.07;45.44;101369.00;5049673;28;20135;-72
2022/09/06 03:27:21;;;;;;;61.38;57.92;;;;;;;24.06;45.59;101379.22;5050927;28;20029;-72
2022/09/06 03:29:47;;;;;;;62.20;59.10;;;;;;;24.04;45.22;101373.22;5042416;28;20116;-72
2022/09/06 03:32:12;;;;;;;61.20;58.00;;;;;;;24.02;45.41;101366.41;5049164;28;20035;-72
2022/09/06 03:34:38;;;;;;;67.20;63.80;;;;;;;23.99;45.38;101365.09;5041472;28;20039;-73
2022/09/06 03:37:03;;;;;;;64.78;61.47;;;;;;;23.98;45.48;101371.72;5042380;28;20041;-73
2022/09/06 03:39:28;;;;;;;67.70;64.40;;;;;;;23.96;45.22;101379.50;5048468;28;20037;-74
2022/09/06 03:41:54;;;;;;;63.67;60.47;;;;;;;23.94;45.37;101379.03;5040479;28;20037;-72
2022/09/06 03:44:19;;;;;;;63.45;59.85;;;;;;;23.93;45.45;101385.66;5043488;28;20037;-72
2022/09/06 03:46:45;;;;;;;60.85;57.75;;;;;;;23.90;45.40;101389.88;5043284;28;20477;-73
2022/09/06 03:49:10;;;;;;;62.42;59.30;;;;;;;23.88;45.68;101394.88;5042183;28;20025;-73
2022/09/06 03:51:35;;;;;;;61.45;58.33;;;;;;;23.87;45.33;101389.69;5051724;28;20037;-73
2022/09/06 03:54:01;;;;;;;61.88;58.67;;;;;;;23.84;45.26;101393.91;5043958;28;20149;-73
2022/09/06 03:56:27;;;;;;;63.03;59.97;;;;;;;23.83;45.33;101399.72;5051083;28;20485;-72
2022/09/06 03:58:52;;;;;;;60.70;57.53;;;;;;;23.80;45.61;101394.84;5053041;28;20107;-72
2022/09/06 04:01:18;;;;;;;63.55;60.35;;;;;;;23.78;45.31;101403.44;5053468;28;20388;-72
2022/09/06 04:03:44;;;;;;;62.60;59.38;;;;;;;23.75;45.81;101402.13;5050738;28;20037;-72
2022/09/06 04:06:09;;;;;;;62.70;59.40;;;;;;;23.75;45.31;101409.59;5045357;28;20041;-73
2022/09/06 04:08:35;;;;;;;62.45;59.25;;;;;;;23.73;45.25;101409.09;5039078;28;20126;-72
2022/09/06 04:11:01;;;;;;;62.25;59.20;;;;;;;23.69;45.36;101414.41;5040116;28;20401;-72
2022/09/06 04:13:28;;;;;;;62.20;58.83;;;;;;;23.69;45.38;101408.88;5046164;28;20025;-73
2022/09/06 04:15:53;;;;;;;59.90;56.85;;;;;;;23.66;45.59;101408.69;5043305;28;20037;-73
2022/09/06 04:18:20;;;;;;;61.17;57.97;;;;;;;23.65;45.47;101407.06;5044607;28;20040;-73
2022/09/06 04:20:50;;;;;;;60.95;57.78;;;;;;;23.63;45.57;101407.38;5045325;28;20054;-72
2022/09/06 04:23:16;;;;;;;62.20;59.08;;;;;;;23.61;45.38;101411.56;5037001;28;20033;-72
2022/09/06 04:25:45;;;;;;;61.47;58.22;;;;;;;23.59;45.95;101413.84;5050895;28;20136;-72
2022/09/06 04:28:10;;;;;;;63.25;59.75;;;;;;;23.57;45.74;101405.06;5040998;28;20040;-72
2022/09/06 04:30:36;;;;;;;60.80;57.65;;;;;;;23.55;45.67;101408.13;5039988;28;20041;-73
2022/09/06 04:33:01;;;;;;;59.35;56.35;;;;;;;23.52;45.91;101404.06;5050469;28;20037;-72
2022/09/06 04:35:26;;;;;;;59.35;56.22;;;;;;;23.50;45.49;101398.03;5042851;28;20449;-72
2022/09/06 04:37:52;;;;;;;60.22;57.08;;;;;;;23.48;45.46;101397.53;5048603;28;20122;-72
2022/09/06 04:40:17;;;;;;;59.13;56.13;;;;;;;23.45;45.97;101392.66;5048075;28;20087;-72
2022/09/06 04:42:42;;;;;;;60.28;56.97;;;;;;;23.43;45.71;101392.16;5077684;28;20037;-72
2022/09/06 04:45:08;;;;;;;58.72;55.53;;;;;;;23.42;45.47;101393.28;5040548;28;20038;-72
2022/09/06 04:47:34;;;;;;;61.92;58.67;;;;;;;23.40;45.73;101394.72;5039505;28;20105;-72
2022/09/06 04:49:59;;;;;;;62.17;58.97;;;;;;;23.38;46.01;101403.31;5036060;28;20055;-72
2022/09/06 04:52:25;;;;;;;59.83;56.78;;;;;;;23.36;45.84;101405.59;5090365;28;20060;-72
2022/09/06 04:54:50;;;;;;;59.78;56.58;;;;;;;23.35;45.72;101405.88;5044549;28;20115;-72
2022/09/06 04:57:15;;;;;;;60.53;56.67;;;;;;;23.33;45.96;101406.19;5053205;28;20033;-73
2022/09/06 04:59:41;;;;;;;60.40;56.95;;;;;;;23.29;46.03;101394.97;5036898;28;20496;-73
2022/09/06 05:02:06;;;;;;;57.72;54.72;;;;;;;23.26;45.54;101387.34;5049980;28;20029;-73
2022/09/06 05:04:31;;;;;;;62.72;59.33;;;;;;;23.24;45.49;101381.31;5048693;28;20087;-73
2022/09/06 05:07:02;;;;;;;63.30;60.00;;;;;;;23.23;45.52;101378.88;5038807;28;20045;-72
2022/09/06 05:09:28;;;;;;;58.30;55.40;;;;;;;23.20;45.40;101388.59;5041554;28;20430;-74
2022/09/06 05:11:53;;;;;;;58.65;54.85;;;;;;;23.19;45.47;101399.94;5037417;28;20064;-73
2022/09/06 05:14:18;;;;;;;58.50;55.30;;;;;;;23.17;45.43;101400.22;5033696;28;20067;-73
2022/09/06 05:16:45;;;;;;;60.90;57.75;;;;;;;23.15;45.51;101404.44;5032385;28;20021;-73
2022/09/06 05:19:10;;;;;;;60.45;57.25;;;;;;;23.14;45.54;101403.63;5050893;28;20128;-73
2022/09/06 05:21:36;;;;;;;57.35;54.17;;;;;;;23.10;45.50;101394.34;5037208;28;20453;-73
2022/09/06 05:24:01;;;;;;;63.78;60.28;;;;;;;23.08;46.04;101399.34;5044777;28;20053;-73
2022/09/06 05:26:27;;;;;;;56.78;53.80;;;;;;;23.07;45.92;101400.47;5039079;28;20083;-72
2022/09/06 05:28:52;;;;;;;60.03;56.83;;;;;;;23.04;45.54;101401.91;5036801;28;20120;-73
2022/09/06 05:31:29;;;;;;;56.90;53.90;;;;;;;23.03;45.86;101393.94;5039158;28;20059;-73
2022/09/06 05:33:56;;;;;;;60.47;57.33;;;;;;;23.01;46.14;101393.47;5034723;28;20033;-73
2022/09/06 05:36:23;;;;;;;58.60;55.60;;;;;;;22.99;46.08;101396.53;5047893;28;20116;-72
2022/09/06 05:38:53;;;;;;;62.85;59.25;;;;;;;22.98;45.71;101396.81;5032436;28;20420;-73
2022/09/06 05:41:19;;;;;;;57.75;54.55;;;;;;;22.97;46.04;101406.19;5046997;28;20043;-71
2022/09/06 05:43:45;;;;;;;57.67;54.47;;;;;;;22.96;45.86;101404.56;5049696;28;20370;-73
2022/09/06 05:46:11;;;;;;;59.08;55.75;;;;;;;22.93;46.44;101406.00;5041496;28;20048;-72
2022/09/06 05:48:37;;;;;;;60.13;56.72;;;;;;;22.91;45.85;101405.50;5050609;28;20465;-72
2022/09/06 05:51:05;;;;;;;56.70;53.67;;;;;;;22.89;46.45;101394.78;5042105;28;20037;-72
2022/09/06 05:53:43;;;;;;;;;;;;;;;22.88;45.51;101395.91;5042169;28;20134;-72
2022/09/06 05:56:10;;;;;;;;;;;;;;;22.86;45.27;101392.66;5049413;28;19966;-72
2022/09/06 05:58:36;;;;;;;55.90;52.90;;;;;;;22.83;45.43;101392.44;5045734;28;19947;-72
2022/09/06 06:01:14;;;;;;;58.65;55.25;;;;;;;22.80;45.96;101388.38;5034633;28;20033;-72
2022/09/06 06:03:39;;;;;;;56.50;53.60;;;;;;;22.79;45.87;101388.69;5041104;28;20030;-72
2022/09/06 06:06:05;;;;;;;60.17;56.85;;;;;;;22.78;45.81;101396.16;5033062;28;20039;-72
2022/09/06 06:08:30;;;;;;;56.70;53.60;;;;;;;22.76;46.45;101395.63;5040290;28;20037;-72
2022/09/06 06:10:59;;;;;;;58.75;54.38;;;;;;;22.76;47.00;101386.56;5036069;28;20160;-74
2022/09/06 06:13:27;;;;;;;56.45;53.20;;;;;;;22.74;47.38;101394.31;5031654;28;20029;-73
2022/09/06 06:15:52;;;;;;;58.57;55.17;;;;;;;22.72;47.14;101391.84;5032615;28;20477;-73
2022/09/06 06:18:18;;;;;;;57.58;54.47;;;;;;;22.72;47.50;101396.56;5049893;28;20035;-73
2022/09/06 06:20:43;;;;;;;56.33;52.92;;;;;;;22.71;47.53;101386.69;5051323;28;20524;-73
2022/09/06 06:23:09;;;;;;;58.67;55.22;;;;;;;22.69;47.49;101390.53;5050279;28;20028;-74
2022/09/06 06:25:34;;;;;;;60.08;56.80;;;;;;;22.68;47.53;101385.34;5041289;28;20053;-74
2022/09/06 06:27:59;;;;;;;61.08;57.88;;;;;;;22.67;47.51;101391.97;5030810;28;20128;-74
2022/09/06 06:30:25;;;;;;;56.67;53.28;;;;;;;22.66;47.30;101387.59;5044627;28;20041;-73
2022/09/06 06:32:50;;;;;;;57.50;54.33;;;;;;;22.65;47.37;101385.94;5049131;28;20064;-74
2022/09/06 06:35:15;;;;;;;56.25;53.08;;;;;;;22.64;47.09;101384.34;5044553;28;20065;-73
2022/09/06 06:37:41;;;;;;;55.92;52.83;;;;;;;22.62;47.60;101381.88;5031165;28;20025;-74
2022/09/06 06:40:07;;;;;;;56.92;53.92;;;;;;;22.60;47.38;101378.63;5042017;28;20059;-74
2022/09/06 06:42:33;;;;;;;56.70;53.47;;;;;;;22.59;47.34;101377.00;5042305;28;20029;-74
2022/09/06 06:44:59;;;;;;;59.15;55.95;;;;;;;22.59;47.43;101381.69;5030843;28;20041;-74
2022/09/06 06:47:24;;;;;;;58.40;54.88;;;;;;;22.57;47.23;101372.91;5035200;28;20112;-74
2022/09/06 06:49:49;;;;;;;59.78;56.25;;;;;;;22.56;47.75;101382.31;5030890;28;20069;-73
2022/09/06 06:52:15;;;;;;;58.72;55.70;;;;;;;22.56;47.61;101387.81;5031161;28;20470;-74
2022/09/06 06:54:40;;;;;;;56.85;53.90;;;;;;;22.55;47.61;101377.91;5040185;28;20045;-74
2022/09/06 06:57:08;;;;;;;56.28;53.28;;;;;;;22.54;47.43;101379.84;5043496;28;20477;-74
2022/09/06 06:59:34;;;;;;;57.65;54.58;;;;;;;22.54;47.57;101385.38;5050758;28;20469;-74
2022/09/06 07:01:59;;;;;;;57.90;54.90;;;;;;;22.55;47.62;101391.69;5049781;28;20108;-74
2022/09/06 07:04:24;;;;;;;57.30;54.30;;;;;;;22.53;47.72;101381.00;5046268;28;20048;-74
2022/09/06 07:06:52;;;;;;;57.13;53.92;;;;;;;22.52;47.81;101373.84;5032022;28;20044;-72
2022/09/06 07:09:19;;;;;;;60.45;56.95;;;;;;;22.53;47.89;101374.66;5041064;28;20071;-73
2022/09/06 07:11:45;;;;;;;55.00;52.10;;;;;;;22.52;47.59;101373.03;5041647;28;20033;-72
2022/09/06 07:14:10;;;;;;;57.13;54.08;;;;;;;22.52;47.76;101373.03;5043248;28;20205;-72
2022/09/06 07:16:35;;;;;;;54.63;51.67;;;;;;;22.52;48.30;101384.84;5050916;28;20477;-72
2022/09/06 07:19:01;;;;;;;57.60;54.22;;;;;;;22.51;48.29;101372.22;5048410;28;20977;-72
2022/09/06 07:21:26;;;;;;;54.92;51.88;;;;;;;22.52;48.73;101378.53;5048505;28;20068;-72
2022/09/06 07:23:53;;;;;;;54.75;51.90;;;;;;;22.53;48.84;101374.66;5035084;28;20099;-71
2022/09/06 07:26:21;;;;;;;56.15;53.15;;;;;;;22.53;49.16;101372.72;5050741;28;20041;-71
2022/09/06 07:28:47;;;;;;;;;;;;;;;22.53;48.35;101374.66;5039376;28;20088;-72
2022/09/06 07:31:12;;;;;;;53.53;50.47;;;;;;;22.53;48.07;101383.75;5057631;28;19912;-72
2022/09/06 07:33:38;;;;;;;52.72;49.83;;;;;;;22.54;48.23;101379.06;5046477;28;20091;-72
2022/09/06 07:36:05;;;;;;;55.88;52.58;;;;;;;22.56;48.98;101374.06;5053274;28;20051;-72
2022/09/06 07:38:32;;;;;;;57.27;54.13;;;;;;;22.57;48.85;101373.72;5050906;28;20513;-72
2022/09/06 07:41:06;;;;;;;55.15;52.25;;;;;;;22.59;48.97;101374.25;5033607;28;20632;-71
2022/09/06 07:43:32;;;;;;;59.22;55.83;;;;;;;22.61;49.13;101372.00;5034258;28;20382;-72
2022/09/06 07:46:07;;;;;;;53.83;50.88;;;;;;;22.64;49.31;101370.56;5043730;28;20065;-72
2022/09/06 07:48:35;;;;;;;54.05;51.05;;;;;;;22.64;49.25;101368.63;5034414;28;20030;-72
2022/09/06 07:51:08;;;;;;;56.90;53.80;;;;;;;22.67;49.37;101372.69;5033152;28;20112;-73
2022/09/06 07:53:35;;;;;;;55.25;52.15;;;;;;;22.70;48.82;101383.09;5042494;28;20392;-74
2022/09/06 07:56:02;;;;;;;59.05;55.75;;;;;;;22.73;49.27;101368.72;5053270;28;20044;-71
2022/09/06 07:58:28;;;;;;;55.85;52.72;;;;;;;22.76;49.24;101368.09;5049752;28;20037;-73
2022/09/06 08:01:12;;;;;;;53.65;50.85;;;;;;;22.80;49.21;101365.53;5045067;28;20508;-73
2022/09/06 08:03:37;;;;;;;54.10;51.28;;;;;;;22.83;48.75;101360.22;5041522;28;20435;-72
2022/09/06 08:06:03;;;;;;;57.92;54.67;;;;;;;22.89;49.16;101360.91;5050911;28;20045;-72
2022/09/06 08:08:29;;;;;;;55.80;52.90;;;;;;;22.93;49.13;101361.09;5050133;28;20528;-72
2022/09/06 08:10:54;;;;;;;54.95;52.10;;;;;;;22.97;49.58;101359.34;5053529;28;20064;-73
2022/09/06 08:13:20;;;;;;;54.20;51.30;;;;;;;23.01;49.45;101363.16;5052369;28;20072;-73
2022/09/06 08:15:45;;;;;;;55.28;52.28;;;;;;;23.05;49.52;101366.91;5047040;28;20401;-72
2022/09/06 08:18:10;;;;;;;56.50;53.60;;;;;;;23.09;49.20;101365.97;5036341;28;20033;-72
2022/09/06 08:20:36;;;;;;;56.63;53.78;;;;;;;23.14;49.15;101378.81;5043945;28;20079;-73
2022/09/06 08:23:01;;;;;;;56.63;53.78;;;;;;;23.20;49.34;101371.22;5042031;28;20231;-72
2022/09/06 08:25:26;;;;;;;56.30;53.13;;;;;;;23.24;49.24;101373.06;5033988;28;20045;-72
2022/09/06 08:27:53;;;;;;;57.55;54.67;;;;;;;23.30;49.19;101373.75;5050797;28;20384;-72
2022/09/06 08:30:19;;;;;;;57.35;54.45;;;;;;;23.39;48.81;101390.34;5043003;28;20113;-74
2022/09/06 08:32:45;;;;;;;56.55;53.53;;;;;;;23.44;49.40;101382.78;5033925;28;20382;-74
2022/09/06 08:35:10;;;;;;;59.80;56.80;;;;;;;23.50;49.26;101386.22;5032604;28;20041;-73
2022/09/06 08:37:35;;;;;;;54.92;52.22;;;;;;;23.57;49.35;101381.06;5051609;28;20082;-76
2022/09/06 08:40:02;;;;;;;59.30;55.95;;;;;;;23.64;48.92;101383.38;5049147;28;20053;-75
2022/09/06 08:42:29;;;;;;;60.25;57.20;;;;;;;23.70;48.49;101382.09;5033781;28;20037;-75
2022/09/06 08:44:57;;;;;;;61.60;58.50;;;;;;;23.78;48.90;101383.31;5050392;28;20029;-76
2022/09/06 08:47:22;;;;;;;58.05;55.05;;;;;;;23.83;48.48;101375.72;5042068;28;20287;-73
2022/09/06 08:50:00;;;;;;;58.08;55.05;;;;;;;23.89;49.28;101379.97;5042953;28;20399;-74
2022/09/06 08:52:45;;;;;;;61.63;58.63;;;;;;;23.96;49.14;101382.25;5041541;28;20045;-72
2022/09/06 08:55:31;;;;;;;63.05;59.88;;;;;;;24.00;48.65;101374.19;5038756;28;20033;-72
2022/09/06 08:58:18;;;;;;;61.10;58.00;;;;;;;24.04;48.34;101378.75;5041862;28;20079;-73
2022/09/06 09:00:57;;;;;;;60.65;57.65;;;;;;;24.06;48.55;101368.19;5030930;28;20026;-72
2022/09/06 09:03:30;;;;;;;59.90;56.78;;;;;;;24.10;48.32;101373.88;5030621;28;20103;-72
2022/09/06 09:05:55;;;;;;;60.03;56.88;;;;;;;24.15;48.30;101379.25;5031285;28;20384;-73
2022/09/06 09:08:43;;;;;;;62.42;59.30;;;;;;;24.19;48.69;101383.84;5044201;28;20037;-73
2022/09/06 09:11:14;;;;;;;62.20;58.80;;;;;;;24.23;48.38;101383.19;5038423;28;20037;-72
2022/09/06 09:13:46;;;;;;;63.60;60.33;;;;;;;24.27;48.87;101387.75;5030297;28;20021;-72
2022/09/06 09:16:13;;;;;;;63.88;60.58;;;;;;;24.30;48.75;101373.31;5030347;28;20026;-72
2022/09/06 09:18:42;;;;;;;64.55;61.30;;;;;;;24.33;48.36;101378.19;5047693;28;20033;-72
2022/09/06 09:21:08;;;;;;;64.75;61.25;;;;;;;24.37;48.05;101372.84;5033055;28;20431;-72
2022/09/06 09:23:34;;;;;;;66.18;62.70;;;;;;;24.40;48.26;101378.53;5048298;28;20056;-71
2022/09/06 09:26:04;;;;;;;62.72;59.22;;;;;;;24.44;48.93;101375.94;5050407;28;20473;-71
2022/09/06 09:28:30;;;;;;;66.72;62.88;;;;;;;24.48;48.46;101373.38;5042363;28;20389;-71
2022/09/06 09:30:56;;;;;;;64.45;61.15;;;;;;;24.52;48.65;101361.38;5032626;28;20113;-74
2022/09/06 09:33:33;;;;;;;66.25;62.80;;;;;;;24.55;48.83;101363.50;5039094;28;20047;-72
2022/09/06 09:36:01;;;;;;;64.72;61.42;;;;;;;24.58;48.78;101364.78;5051811;28;20039;-71
2022/09/06 09:38:29;;;;;;;;;;;;;;;24.61;48.55;101359.41;5051503;28;20352;-72
2022/09/06 09:40:56;;;;;;;61.92;58.90;;;;;;;24.64;48.87;101352.44;5065520;28;19919;-71
2022/09/06 09:43:24;;;;;;;66.20;62.90;;;;;;;24.68;48.39;101358.16;5031953;28;20030;-72
2022/09/06 09:46:15;;;;;;;66.90;63.60;;;;;;;24.72;48.73;101364.63;5038335;28;20033;-72
2022/09/06 09:49:08;;;;;;;63.67;60.38;;;;;;;24.76;48.82;101368.38;5041926;28;20041;-72
2022/09/06 09:51:42;;;;;;;68.22;64.88;;;;;;;24.79;48.62;101373.25;5037932;28;20396;-73
2022/09/06 09:54:13;;;;;;;66.05;62.72;;;;;;;24.81;48.77;101377.31;5043835;28;20459;-72
2022/09/06 09:56:42;;;;;;;65.50;62.30;;;;;;;24.87;48.29;101385.44;5048525;28;20073;-72
2022/09/06 09:59:21;;;;;;;67.53;63.95;;;;;;;24.91;48.26;101380.91;5042395;28;20025;-73
2022/09/06 10:01:47;;;;;;;68.68;65.18;;;;;;;24.95;48.39;101381.91;5050361;28;20025;-72
2022/09/06 10:04:37;;;;;;;66.65;63.30;;;;;;;24.98;48.59;101384.00;5042771;28;20028;-71
2022/09/06 10:07:12;;;;;;;64.72;61.55;;;;;;;25.02;48.71;101377.50;5050620;28;20037;-71
2022/09/06 10:09:47;;;;;;;70.10;66.60;;;;;;;25.05;48.28;101381.56;5040431;28;20033;-71
2022/09/06 10:12:16;;;;;;;68.72;65.15;;;;;;;25.08;48.20;101386.44;5051690;28;20100;-71
2022/09/06 10:14:47;;;;;;;66.55;63.30;;;;;;;25.13;47.92;101385.47;5050712;28;20472;-74
2022/09/06 10:17:31;;;;;;;70.18;66.63;;;;;;;25.17;48.23;101383.69;5045459;28;20035;-72
2022/09/06 10:20:07;;;;;;;71.28;67.60;;;;;;;25.21;48.47;101390.22;5051707;28;20473;-72
2022/09/06 10:22:55;;;;;;;68.13;64.82;;;;;;;25.24;48.31;101379.31;5051451;28;20540;-73
2022/09/06 10:25:23;;;;;;;66.07;62.67;;;;;;;25.28;47.91;101392.50;5047012;28;20053;-73
2022/09/06 10:27:51;;;;;;;;;;;;;;;25.29;47.92;101397.69;5041750;28;20033;-72
2022/09/06 10:30:17;;;;;;;67.30;63.75;;;;;;;25.31;48.04;101387.09;5049511;28;20015;-73
2022/09/06 10:32:51;;;;;;;71.05;67.53;;;;;;;25.34;47.75;101383.69;5040649;28;20511;-73
2022/09/06 10:35:27;;;;;;;67.18;63.72;;;;;;;25.37;47.78;101383.03;5042802;28;20552;-73
2022/09/06 10:38:31;;;;;;;66.82;63.28;;;;;;;25.42;47.88;101387.56;5038715;28;20040;-73
2022/09/06 10:41:15;;;;;;;69.05;65.55;;;;;;;25.44;48.06;101388.06;4970864;28;20045;-73
2022/09/06 10:44:04;;;;;;;74.78;70.90;;;;;;;25.46;47.91;101370.00;5033665;28;20048;-73
2022/09/06 10:46:33;;;;;;;70.18;66.50;;;;;;;25.49;48.03;101374.06;5030756;28;20033;-72
2022/09/06 10:48:59;;;;;;;73.72;69.35;;;;;;;25.53;47.97;101379.75;5032617;28;20033;-73
2022/09/06 10:51:39;;;;;;;70.55;66.75;;;;;;;25.55;47.87;101385.75;5029160;28;20041;-73
2022/09/06 10:54:09;;;;;;;71.95;67.60;;;;;;;25.57;47.89;101389.81;5047744;28;20262;-73
2022/09/06 10:56:50;;;;;;;72.25;68.13;;;;;;;25.62;47.48;101394.38;5032107;28;20120;-73
2022/09/06 10:59:27;;;;;;;68.70;65.13;;;;;;;25.63;47.64;101396.81;5041563;28;20033;-72
2022/09/06 11:02:04;;;;;;;73.85;69.70;;;;;;;25.65;47.62;101397.31;5053821;28;20025;-72
2022/09/06 11:04:38;;;;;;;69.85;65.97;;;;;;;25.68;47.74;101399.41;5045663;28;20036;-71
2022/09/06 11:07:14;;;;;;;70.63;67.15;;;;;;;25.71;47.69;101397.94;5035628;28;20496;-73
2022/09/06 11:09:49;;;;;;;73.55;69.72;;;;;;;25.74;47.55;101396.47;5045951;28;20060;-72
2022/09/06 11:12:26;;;;;;;73.47;69.55;;;;;;;25.75;47.79;101398.88;5054560;28;20041;-72
2022/09/06 11:14:52;;;;;;;70.43;66.83;;;;;;;25.78;47.16;101391.88;5043260;28;20033;-72
2022/09/06 11:17:26;;;;;;;76.65;72.78;;;;;;;25.81;47.35;101392.06;5053563;28;20643;-73
2022/09/06 11:20:05;;;;;;;72.65;68.97;;;;;;;25.84;47.73;101383.06;5054838;28;20033;-74
2022/09/06 11:22:36;;;;;;;73.25;69.75;;;;;;;25.87;47.62;101398.25;5054846;28;20041;-75